sensor_id;sensor_type;location;lat;lon;timestamp;P1;P2;P0
60058;PMS7003;45932;50.658;3.022;2022-12-24T00:01:21;10.67;7.00;3.00
60058;PMS7003;45932;50.658;3.022;2022-12-24T00:03:46;9.00;4.00;1.00
60058;PMS7003;45932;50.658;3.022;2022-12-24T00:06:15;7.00;2.67;1.67
60058;PMS7003;45932;50.658;3.022;2022-12-24T00:08:41;7.00;5.00;2.00
60058;PMS7003;45932;50.658;3.022;2022-12-24T00:11:06;3.33;2.67;1.33
60058;PMS7003;45932;50.658;3.022;2022-12-24T00:13:31;8.00;4.67;2.00
60058;PMS7003;45932;50.658;3.022;2022-12-24T00:15:57;6.33;3.33;1.00
60058;PMS7003;45932;50.658;3.022;2022-12-24T00:18:22;7.00;6.00;2.00
60058;PMS7003;45932;50.658;3.022;2022-12-24T00:20:47;4.33;2.00;1.00
60058;PMS7003;45932;50.658;3.022;2022-12-24T00:23:13;8.00;5.00;3.00
60058;PMS7003;45932;50.658;3.022;2022-12-24T00:25:38;6.00;4.33;3.00
60058;PMS7003;45932;50.658;3.022;2022-12-24T00:28:03;8.33;6.33;2.33
60058;PMS7003;45932;50.658;3.022;2022-12-24T00:30:29;13.67;8.00;2.33
60058;PMS7003;45932;50.658;3.022;2022-12-24T00:32:54;8.00;6.00;3.00
60058;PMS7003;45932;50.658;3.022;2022-12-24T00:35:19;9.33;5.00;2.33
60058;PMS7003;45932;50.658;3.022;2022-12-24T00:37:47;6.67;4.67;2.00
60058;PMS7003;45932;50.658;3.022;2022-12-24T00:40:13;9.00;5.00;2.33
60058;PMS7003;45932;50.658;3.022;2022-12-24T00:42:38;5.33;4.00;2.00
60058;PMS7003;45932;50.658;3.022;2022-12-24T00:45:04;12.00;4.33;2.67
60058;PMS7003;45932;50.658;3.022;2022-12-24T00:47:29;8.00;6.67;3.00
60058;PMS7003;45932;50.658;3.022;2022-12-24T00:49:54;9.00;3.67;2.00
60058;PMS7003;45932;50.658;3.022;2022-12-24T00:52:19;9.33;4.00;2.00
60058;PMS7003;45932;50.658;3.022;2022-12-24T00:54:44;9.33;4.00;2.00
60058;PMS7003;45932;50.658;3.022;2022-12-24T00:57:10;9.33;6.33;0.00
60058;PMS7003;45932;50.658;3.022;2022-12-24T00:59:35;7.33;4.00;2.00
60058;PMS7003;45932;50.658;3.022;2022-12-24T01:02:00;6.33;6.00;2.00
60058;PMS7003;45932;50.658;3.022;2022-12-24T01:04:25;8.00;5.33;1.67
60058;PMS7003;45932;50.658;3.022;2022-12-24T01:07:09;6.33;3.00;2.00
60058;PMS7003;45932;50.658;3.022;2022-12-24T01:09:34;9.67;5.33;1.33
60058;PMS7003;45932;50.658;3.022;2022-12-24T01:11:59;10.33;6.00;2.00
60058;PMS7003;45932;50.658;3.022;2022-12-24T01:14:24;6.67;3.67;1.33
60058;PMS7003;45932;50.658;3.022;2022-12-24T01:16:50;5.33;3.00;1.00
60058;PMS7003;45932;50.658;3.022;2022-12-24T01:19:15;7.00;5.67;2.00
60058;PMS7003;45932;50.658;3.022;2022-12-24T01:21:40;6.67;5.00;2.67
60058;PMS7003;45932;50.658;3.022;2022-12-24T01:24:05;7.33;7.33;2.33
60058;PMS7003;45932;50.658;3.022;2022-12-24T01:26:30;7.33;4.00;2.00
60058;PMS7003;45932;50.658;3.022;2022-12-24T01:28:56;5.33;3.67;1.67
60058;PMS7003;45932;50.658;3.022;2022-12-24T01:31:21;7.33;5.33;2.00
60058;PMS7003;45932;50.658;3.022;2022-12-24T01:33:47;12.00;5.67;3.00
60058;PMS7003;45932;50.658;3.022;2022-12-24T01:36:13;7.33;4.33;1.67
60058;PMS7003;45932;50.658;3.022;2022-12-24T01:38:38;8.67;3.00;1.00
60058;PMS7003;45932;50.658;3.022;2022-12-24T01:41:04;11.67;5.33;3.00
60058;PMS7003;45932;50.658;3.022;2022-12-24T01:43:48;9.00;2.67;1.33
60058;PMS7003;45932;50.658;3.022;2022-12-24T01:46:15;8.33;6.67;3.00
60058;PMS7003;45932;50.658;3.022;2022-12-24T01:48:49;6.00;4.00;2.00
60058;PMS7003;45932;50.658;3.022;2022-12-24T01:51:28;8.67;6.00;3.00
60058;PMS7003;45932;50.658;3.022;2022-12-24T01:53:59;5.33;5.00;2.33
60058;PMS7003;45932;50.658;3.022;2022-12-24T01:56:27;8.00;5.00;3.00
60058;PMS7003;45932;50.658;3.022;2022-12-24T01:58:56;11.67;6.00;3.00
60058;PMS7003;45932;50.658;3.022;2022-12-24T02:01:22;8.00;6.33;3.00
60058;PMS7003;45932;50.658;3.022;2022-12-24T02:03:47;5.00;2.33;1.33
60058;PMS7003;45932;50.658;3.022;2022-12-24T02:06:13;5.33;5.33;2.67
60058;PMS7003;45932;50.658;3.022;2022-12-24T02:08:42;6.67;3.00;2.00
60058;PMS7003;45932;50.658;3.022;2022-12-24T02:11:14;6.33;5.00;2.00
60058;PMS7003;45932;50.658;3.022;2022-12-24T02:13:44;8.67;8.00;3.00
60058;PMS7003;45932;50.658;3.022;2022-12-24T02:16:16;4.67;2.67;2.00
60058;PMS7003;45932;50.658;3.022;2022-12-24T02:31:15;11.33;7.00;3.33
60058;PMS7003;45932;50.658;3.022;2022-12-24T02:33:45;5.00;3.33;2.00
60058;PMS7003;45932;50.658;3.022;2022-12-24T02:36:19;9.00;4.00;1.67
60058;PMS7003;45932;50.658;3.022;2022-12-24T02:38:48;5.67;4.33;2.00
60058;PMS7003;45932;50.658;3.022;2022-12-24T02:41:19;9.00;7.33;3.00
60058;PMS7003;45932;50.658;3.022;2022-12-24T02:43:47;8.00;4.00;1.67
60058;PMS7003;45932;50.658;3.022;2022-12-24T02:46:15;7.33;3.67;2.00
60058;PMS7003;45932;50.658;3.022;2022-12-24T02:48:41;11.00;4.33;2.00
60058;PMS7003;45932;50.658;3.022;2022-12-24T02:51:09;10.00;4.33;3.00
60058;PMS7003;45932;50.658;3.022;2022-12-24T02:53:34;11.33;7.33;3.33
60058;PMS7003;45932;50.658;3.022;2022-12-24T02:58:37;10.00;5.00;2.00
60058;PMS7003;45932;50.658;3.022;2022-12-24T03:04:39;3.67;3.33;2.00
60058;PMS7003;45932;50.658;3.022;2022-12-24T03:11:56;10.67;5.00;2.00
60058;PMS7003;45932;50.658;3.022;2022-12-24T03:14:22;4.33;4.00;2.00
60058;PMS7003;45932;50.658;3.022;2022-12-24T03:16:49;5.67;4.00;2.00
60058;PMS7003;45932;50.658;3.022;2022-12-24T03:19:14;9.00;4.67;2.33
60058;PMS7003;45932;50.658;3.022;2022-12-24T03:21:40;7.00;4.67;2.00
60058;PMS7003;45932;50.658;3.022;2022-12-24T03:24:07;9.00;6.00;1.33
60058;PMS7003;45932;50.658;3.022;2022-12-24T03:26:32;9.00;4.67;2.67
60058;PMS7003;45932;50.658;3.022;2022-12-24T03:28:58;9.67;6.67;2.67
60058;PMS7003;45932;50.658;3.022;2022-12-24T03:31:23;7.00;5.67;2.00
60058;PMS7003;45932;50.658;3.022;2022-12-24T03:33:49;6.67;5.00;2.00
60058;PMS7003;45932;50.658;3.022;2022-12-24T03:36:14;10.33;5.33;2.00
60058;PMS7003;45932;50.658;3.022;2022-12-24T03:38:40;13.67;7.00;2.67
60058;PMS7003;45932;50.658;3.022;2022-12-24T03:41:05;8.67;3.33;1.00
60058;PMS7003;45932;50.658;3.022;2022-12-24T03:43:30;11.00;5.00;2.00
60058;PMS7003;45932;50.658;3.022;2022-12-24T03:45:56;8.00;4.67;2.00
60058;PMS7003;45932;50.658;3.022;2022-12-24T03:48:21;7.33;5.33;3.00
60058;PMS7003;45932;50.658;3.022;2022-12-24T03:50:46;8.00;4.00;2.00
60058;PMS7003;45932;50.658;3.022;2022-12-24T03:53:11;8.33;6.00;2.33
60058;PMS7003;45932;50.658;3.022;2022-12-24T03:55:37;11.00;3.33;1.67
60058;PMS7003;45932;50.658;3.022;2022-12-24T03:58:02;7.00;6.00;2.00
60058;PMS7003;45932;50.658;3.022;2022-12-24T04:00:27;10.00;5.33;2.33
60058;PMS7003;45932;50.658;3.022;2022-12-24T04:02:53;6.67;5.00;2.00
60058;PMS7003;45932;50.658;3.022;2022-12-24T04:05:19;4.67;3.00;1.33
60058;PMS7003;45932;50.658;3.022;2022-12-24T04:07:44;13.00;5.67;1.33
60058;PMS7003;45932;50.658;3.022;2022-12-24T04:10:10;12.67;4.00;1.00
60058;PMS7003;45932;50.658;3.022;2022-12-24T04:12:36;7.67;5.00;2.67
60058;PMS7003;45932;50.658;3.022;2022-12-24T04:15:02;9.67;6.33;2.00
60058;PMS7003;45932;50.658;3.022;2022-12-24T04:17:27;15.00;9.67;3.00
60058;PMS7003;45932;50.658;3.022;2022-12-24T04:19:52;10.67;6.00;3.00
60058;PMS7003;45932;50.658;3.022;2022-12-24T04:22:17;7.00;5.33;3.00
60058;PMS7003;45932;50.658;3.022;2022-12-24T04:24:43;7.67;5.00;1.33
60058;PMS7003;45932;50.658;3.022;2022-12-24T04:27:08;7.00;4.33;2.00
60058;PMS7003;45932;50.658;3.022;2022-12-24T04:29:33;11.00;5.00;2.00
60058;PMS7003;45932;50.658;3.022;2022-12-24T04:31:58;10.33;2.00;1.00
60058;PMS7003;45932;50.658;3.022;2022-12-24T04:34:23;7.00;3.67;1.67
60058;PMS7003;45932;50.658;3.022;2022-12-24T04:36:49;4.67;3.33;1.33
60058;PMS7003;45932;50.658;3.022;2022-12-24T04:39:14;6.00;5.00;2.67
60058;PMS7003;45932;50.658;3.022;2022-12-24T04:41:39;8.67;5.67;3.00
60058;PMS7003;45932;50.658;3.022;2022-12-24T04:44:04;8.33;5.00;2.00
60058;PMS7003;45932;50.658;3.022;2022-12-24T04:46:29;4.67;3.00;2.00
60058;PMS7003;45932;50.658;3.022;2022-12-24T04:48:55;6.33;4.00;3.00
60058;PMS7003;45932;50.658;3.022;2022-12-24T04:51:20;6.67;6.67;2.00
60058;PMS7003;45932;50.658;3.022;2022-12-24T04:53:45;7.00;5.33;2.00
60058;PMS7003;45932;50.658;3.022;2022-12-24T04:56:12;5.00;5.00;2.67
60058;PMS7003;45932;50.658;3.022;2022-12-24T04:58:37;6.33;4.00;1.33
60058;PMS7003;45932;50.658;3.022;2022-12-24T05:01:04;7.00;4.00;3.00
60058;PMS7003;45932;50.658;3.022;2022-12-24T05:03:30;6.00;4.33;2.00
60058;PMS7003;45932;50.658;3.022;2022-12-24T05:06:06;6.67;2.67;1.00
60058;PMS7003;45932;50.658;3.022;2022-12-24T05:08:31;6.00;3.00;2.00
60058;PMS7003;45932;50.658;3.022;2022-12-24T05:10:58;8.33;4.00;2.00
60058;PMS7003;45932;50.658;3.022;2022-12-24T05:13:23;7.67;4.00;1.67
60058;PMS7003;45932;50.658;3.022;2022-12-24T05:15:49;6.67;5.00;2.00
60058;PMS7003;45932;50.658;3.022;2022-12-24T05:18:14;13.33;5.33;2.67
60058;PMS7003;45932;50.658;3.022;2022-12-24T05:20:40;9.00;6.67;2.67
60058;PMS7003;45932;50.658;3.022;2022-12-24T05:23:05;8.67;5.67;1.67
60058;PMS7003;45932;50.658;3.022;2022-12-24T05:25:48;9.67;5.00;2.67
60058;PMS7003;45932;50.658;3.022;2022-12-24T05:28:32;3.00;3.00;2.00
60058;PMS7003;45932;50.658;3.022;2022-12-24T05:30:58;3.33;2.33;1.00
60058;PMS7003;45932;50.658;3.022;2022-12-24T05:33:23;4.00;2.67;1.33
60058;PMS7003;45932;50.658;3.022;2022-12-24T05:35:49;8.67;5.33;2.67
60058;PMS7003;45932;50.658;3.022;2022-12-24T05:38:15;7.00;4.33;2.00
60058;PMS7003;45932;50.658;3.022;2022-12-24T05:40:40;8.33;4.33;2.00
60058;PMS7003;45932;50.658;3.022;2022-12-24T05:43:05;6.33;3.67;2.00
60058;PMS7003;45932;50.658;3.022;2022-12-24T05:45:30;7.67;3.00;1.00
60058;PMS7003;45932;50.658;3.022;2022-12-24T05:47:55;6.00;3.67;2.00
60058;PMS7003;45932;50.658;3.022;2022-12-24T05:50:21;4.00;3.33;2.00
60058;PMS7003;45932;50.658;3.022;2022-12-24T05:52:46;8.00;6.33;2.00
60058;PMS7003;45932;50.658;3.022;2022-12-24T05:55:11;6.00;4.00;2.00
60058;PMS7003;45932;50.658;3.022;2022-12-24T05:57:38;10.67;5.00;1.67
60058;PMS7003;45932;50.658;3.022;2022-12-24T06:00:03;7.00;4.00;2.00
60058;PMS7003;45932;50.658;3.022;2022-12-24T06:02:28;12.00;7.00;2.00
60058;PMS7003;45932;50.658;3.022;2022-12-24T06:04:54;6.00;3.33;1.33
60058;PMS7003;45932;50.658;3.022;2022-12-24T06:07:19;8.00;5.67;2.00
60058;PMS7003;45932;50.658;3.022;2022-12-24T06:09:45;6.00;5.00;2.33
60058;PMS7003;45932;50.658;3.022;2022-12-24T06:12:10;10.67;6.67;4.00
60058;PMS7003;45932;50.658;3.022;2022-12-24T06:14:35;11.67;5.00;2.67
60058;PMS7003;45932;50.658;3.022;2022-12-24T06:17:00;11.33;6.33;3.00
60058;PMS7003;45932;50.658;3.022;2022-12-24T06:19:25;9.33;5.00;2.00
60058;PMS7003;45932;50.658;3.022;2022-12-24T06:21:51;9.33;5.33;2.33
60058;PMS7003;45932;50.658;3.022;2022-12-24T06:24:16;8.00;6.67;3.00
60058;PMS7003;45932;50.658;3.022;2022-12-24T06:26:41;6.33;5.00;3.33
60058;PMS7003;45932;50.658;3.022;2022-12-24T06:29:06;7.67;6.00;3.00
60058;PMS7003;45932;50.658;3.022;2022-12-24T06:31:32;10.67;6.67;2.67
60058;PMS7003;45932;50.658;3.022;2022-12-24T06:33:57;6.00;4.00;2.00
60058;PMS7003;45932;50.658;3.022;2022-12-24T06:36:23;11.33;7.33;4.33
60058;PMS7003;45932;50.658;3.022;2022-12-24T06:38:48;12.00;4.33;2.67
60058;PMS7003;45932;50.658;3.022;2022-12-24T06:41:14;8.67;5.00;2.00
60058;PMS7003;45932;50.658;3.022;2022-12-24T06:43:47;6.00;5.00;2.00
60058;PMS7003;45932;50.658;3.022;2022-12-24T06:46:12;7.67;5.33;3.00
60058;PMS7003;45932;50.658;3.022;2022-12-24T06:48:38;7.33;4.67;2.67
60058;PMS7003;45932;50.658;3.022;2022-12-24T06:51:03;10.00;6.00;2.67
60058;PMS7003;45932;50.658;3.022;2022-12-24T06:53:28;11.00;7.00;4.00
60058;PMS7003;45932;50.658;3.022;2022-12-24T06:56:03;8.67;7.67;3.00
60058;PMS7003;45932;50.658;3.022;2022-12-24T06:58:29;8.33;4.00;3.00
60058;PMS7003;45932;50.658;3.022;2022-12-24T07:00:54;8.33;7.33;3.33
60058;PMS7003;45932;50.658;3.022;2022-12-24T07:03:19;9.00;5.00;3.00
60058;PMS7003;45932;50.658;3.022;2022-12-24T07:05:45;11.00;7.67;4.33
60058;PMS7003;45932;50.658;3.022;2022-12-24T07:08:10;8.67;5.33;2.33
60058;PMS7003;45932;50.658;3.022;2022-12-24T07:10:35;10.33;8.00;4.33
60058;PMS7003;45932;50.658;3.022;2022-12-24T07:13:00;8.33;7.67;4.00
60058;PMS7003;45932;50.658;3.022;2022-12-24T07:15:25;8.33;7.00;3.67
60058;PMS7003;45932;50.658;3.022;2022-12-24T07:17:51;8.33;5.00;3.00
60058;PMS7003;45932;50.658;3.022;2022-12-24T07:20:16;7.67;5.33;1.00
60058;PMS7003;45932;50.658;3.022;2022-12-24T07:22:41;8.00;6.67;1.67
60058;PMS7003;45932;50.658;3.022;2022-12-24T07:25:07;11.33;6.00;4.00
60058;PMS7003;45932;50.658;3.022;2022-12-24T07:27:32;8.00;4.00;2.00
60058;PMS7003;45932;50.658;3.022;2022-12-24T07:29:57;10.67;5.67;3.33
60058;PMS7003;45932;50.658;3.022;2022-12-24T07:32:22;7.33;5.00;3.33
60058;PMS7003;45932;50.658;3.022;2022-12-24T07:34:47;11.00;3.67;2.33
60058;PMS7003;45932;50.658;3.022;2022-12-24T07:37:13;7.00;5.33;3.00
60058;PMS7003;45932;50.658;3.022;2022-12-24T07:39:38;10.00;5.33;3.00
60058;PMS7003;45932;50.658;3.022;2022-12-24T07:42:03;6.33;5.67;2.00
60058;PMS7003;45932;50.658;3.022;2022-12-24T07:44:31;6.33;6.00;3.00
60058;PMS7003;45932;50.658;3.022;2022-12-24T07:46:57;4.33;4.00;3.00
60058;PMS7003;45932;50.658;3.022;2022-12-24T07:49:22;7.33;5.33;3.00
60058;PMS7003;45932;50.658;3.022;2022-12-24T07:51:47;11.67;8.00;3.00
60058;PMS7003;45932;50.658;3.022;2022-12-24T07:54:12;8.00;4.00;2.00
60058;PMS7003;45932;50.658;3.022;2022-12-24T07:56:37;6.67;6.67;3.00
60058;PMS7003;45932;50.658;3.022;2022-12-24T07:59:02;9.33;5.33;2.67
60058;PMS7003;45932;50.658;3.022;2022-12-24T08:01:28;8.33;6.00;3.67
60058;PMS7003;45932;50.658;3.022;2022-12-24T08:03:53;6.67;3.67;3.00
60058;PMS7003;45932;50.658;3.022;2022-12-24T08:06:22;7.33;5.00;3.00
60058;PMS7003;45932;50.658;3.022;2022-12-24T08:08:47;4.67;4.00;3.00
60058;PMS7003;45932;50.658;3.022;2022-12-24T08:11:13;11.00;8.67;3.00
60058;PMS7003;45932;50.658;3.022;2022-12-24T08:13:38;9.33;6.33;4.00
60058;PMS7003;45932;50.658;3.022;2022-12-24T08:16:04;9.00;9.00;4.00
60058;PMS7003;45932;50.658;3.022;2022-12-24T08:18:29;10.00;6.67;4.67
60058;PMS7003;45932;50.658;3.022;2022-12-24T08:20:54;13.00;8.67;4.00
60058;PMS7003;45932;50.658;3.022;2022-12-24T08:23:19;9.67;7.67;4.00
60058;PMS7003;45932;50.658;3.022;2022-12-24T08:25:45;11.33;6.67;3.67
60058;PMS7003;45932;50.658;3.022;2022-12-24T08:28:11;10.33;7.67;4.67
60058;PMS7003;45932;50.658;3.022;2022-12-24T08:30:37;12.00;8.00;5.00
60058;PMS7003;45932;50.658;3.022;2022-12-24T08:33:02;12.67;9.33;4.67
60058;PMS7003;45932;50.658;3.022;2022-12-24T08:35:27;14.00;7.67;5.00
60058;PMS7003;45932;50.658;3.022;2022-12-24T08:37:53;14.33;8.00;5.00
60058;PMS7003;45932;50.658;3.022;2022-12-24T08:40:18;17.33;11.00;5.00
60058;PMS7003;45932;50.658;3.022;2022-12-24T08:42:43;9.67;8.33;5.00
60058;PMS7003;45932;50.658;3.022;2022-12-24T08:45:08;15.67;11.00;6.00
60058;PMS7003;45932;50.658;3.022;2022-12-24T08:47:35;15.67;10.33;6.67
60058;PMS7003;45932;50.658;3.022;2022-12-24T08:50:00;8.33;8.33;5.67
60058;PMS7003;45932;50.658;3.022;2022-12-24T08:52:26;10.67;7.67;4.33
60058;PMS7003;45932;50.658;3.022;2022-12-24T08:54:51;8.33;6.33;4.00
60058;PMS7003;45932;50.658;3.022;2022-12-24T08:57:16;9.00;7.33;5.00
60058;PMS7003;45932;50.658;3.022;2022-12-24T08:59:41;8.33;6.33;5.00
60058;PMS7003;45932;50.658;3.022;2022-12-24T09:02:07;11.67;10.00;6.00
60058;PMS7003;45932;50.658;3.022;2022-12-24T09:04:32;12.33;10.33;3.00
60058;PMS7003;45932;50.658;3.022;2022-12-24T09:06:57;10.67;8.33;6.00
60058;PMS7003;45932;50.658;3.022;2022-12-24T09:09:23;12.00;10.00;6.00
60058;PMS7003;45932;50.658;3.022;2022-12-24T09:11:48;12.50;9.00;6.00
60058;PMS7003;45932;50.658;3.022;2022-12-24T09:14:13;10.00;9.00;6.00
60058;PMS7003;45932;50.658;3.022;2022-12-24T09:16:38;10.67;8.67;6.00
60058;PMS7003;45932;50.658;3.022;2022-12-24T09:19:04;8.67;8.67;4.00
60058;PMS7003;45932;50.658;3.022;2022-12-24T09:21:29;12.00;10.33;6.00
60058;PMS7003;45932;50.658;3.022;2022-12-24T09:23:55;12.67;8.00;5.00
60058;PMS7003;45932;50.658;3.022;2022-12-24T09:26:22;10.67;9.33;7.00
60058;PMS7003;45932;50.658;3.022;2022-12-24T09:28:48;10.00;8.00;6.00
60058;PMS7003;45932;50.658;3.022;2022-12-24T09:31:14;8.00;8.00;6.00
60058;PMS7003;45932;50.658;3.022;2022-12-24T09:33:40;15.00;9.67;6.00
60058;PMS7003;45932;50.658;3.022;2022-12-24T09:36:06;12.33;8.00;5.00
60058;PMS7003;45932;50.658;3.022;2022-12-24T09:38:31;11.00;9.67;6.67
60058;PMS7003;45932;50.658;3.022;2022-12-24T09:40:57;8.00;6.67;4.33
60058;PMS7003;45932;50.658;3.022;2022-12-24T09:43:23;8.33;3.00;1.33
60058;PMS7003;45932;50.658;3.022;2022-12-24T09:48:18;13.67;8.33;5.00
60058;PMS7003;45932;50.658;3.022;2022-12-24T09:53:21;11.67;9.00;5.00
60058;PMS7003;45932;50.658;3.022;2022-12-24T09:55:56;10.00;10.00;6.00
60058;PMS7003;45932;50.658;3.022;2022-12-24T10:01:22;9.00;8.00;5.33
60058;PMS7003;45932;50.658;3.022;2022-12-24T10:03:48;12.33;7.67;4.67
60058;PMS7003;45932;50.658;3.022;2022-12-24T10:06:17;14.33;7.00;4.00
60058;PMS7003;45932;50.658;3.022;2022-12-24T10:11:29;11.67;10.00;6.00
60058;PMS7003;45932;50.658;3.022;2022-12-24T10:16:26;12.33;6.67;5.00
60058;PMS7003;45932;50.658;3.022;2022-12-24T10:19:02;12.33;9.33;5.33
60058;PMS7003;45932;50.658;3.022;2022-12-24T10:26:26;10.00;6.33;3.33
60058;PMS7003;45932;50.658;3.022;2022-12-24T10:28:54;14.00;9.00;5.33
60058;PMS7003;45932;50.658;3.022;2022-12-24T10:31:22;11.33;10.00;6.00
60058;PMS7003;45932;50.658;3.022;2022-12-24T10:33:51;12.33;10.67;7.67
60058;PMS7003;45932;50.658;3.022;2022-12-24T10:36:19;15.00;10.67;7.00
60058;PMS7003;45932;50.658;3.022;2022-12-24T10:38:45;11.00;8.67;5.67
60058;PMS7003;45932;50.658;3.022;2022-12-24T10:41:12;12.67;10.67;7.00
60058;PMS7003;45932;50.658;3.022;2022-12-24T10:43:38;15.00;10.33;6.00
60058;PMS7003;45932;50.658;3.022;2022-12-24T10:46:09;9.67;9.67;6.00
60058;PMS7003;45932;50.658;3.022;2022-12-24T10:48:41;11.67;9.33;6.00
60058;PMS7003;45932;50.658;3.022;2022-12-24T10:54:05;13.33;10.33;5.67
60058;PMS7003;45932;50.658;3.022;2022-12-24T10:56:37;14.67;12.33;8.67
60058;PMS7003;45932;50.658;3.022;2022-12-24T10:59:03;16.33;12.33;7.33
60058;PMS7003;45932;50.658;3.022;2022-12-24T11:01:45;16.33;13.67;7.00
60058;PMS7003;45932;50.658;3.022;2022-12-24T11:04:18;12.67;11.00;5.33
60058;PMS7003;45932;50.658;3.022;2022-12-24T11:09:27;18.67;14.00;8.00
60058;PMS7003;45932;50.658;3.022;2022-12-24T11:11:54;15.67;11.00;6.33
60058;PMS7003;45932;50.658;3.022;2022-12-24T11:14:20;16.33;11.00;6.67
60058;PMS7003;45932;50.658;3.022;2022-12-24T11:16:50;10.67;10.67;7.00
60058;PMS7003;45932;50.658;3.022;2022-12-24T11:19:17;11.67;7.67;4.67
60058;PMS7003;45932;50.658;3.022;2022-12-24T11:21:43;12.00;10.67;5.00
60058;PMS7003;45932;50.658;3.022;2022-12-24T11:39:40;12.33;7.00;4.33
60058;PMS7003;45932;50.658;3.022;2022-12-24T11:42:24;8.00;5.33;3.00
60058;PMS7003;45932;50.658;3.022;2022-12-24T11:44:55;7.00;6.67;5.33
60058;PMS7003;45932;50.658;3.022;2022-12-24T11:47:37;16.33;8.00;5.33
60058;PMS7003;45932;50.658;3.022;2022-12-24T12:03:39;10.67;8.67;4.67
60058;PMS7003;45932;50.658;3.022;2022-12-24T12:06:44;11.00;8.33;4.00
60058;PMS7003;45932;50.658;3.022;2022-12-24T12:09:12;16.67;10.33;6.00
60058;PMS7003;45932;50.658;3.022;2022-12-24T12:11:43;14.33;10.00;6.00
60058;PMS7003;45932;50.658;3.022;2022-12-24T12:14:16;11.67;6.67;4.33
60058;PMS7003;45932;50.658;3.022;2022-12-24T12:16:57;14.00;8.33;6.00
60058;PMS7003;45932;50.658;3.022;2022-12-24T12:19:38;8.33;7.00;3.00
60058;PMS7003;45932;50.658;3.022;2022-12-24T12:22:10;9.33;5.67;4.67
60058;PMS7003;45932;50.658;3.022;2022-12-24T12:24:49;5.00;5.00;4.00
60058;PMS7003;45932;50.658;3.022;2022-12-24T12:27:24;12.67;10.00;4.00
60058;PMS7003;45932;50.658;3.022;2022-12-24T12:29:56;9.00;7.33;4.00
60058;PMS7003;45932;50.658;3.022;2022-12-24T12:33:15;8.67;5.00;2.33
60058;PMS7003;45932;50.658;3.022;2022-12-24T12:35:34;12.00;7.67;4.33
60058;PMS7003;45932;50.658;3.022;2022-12-24T12:38:10;7.67;6.33;4.33
60058;PMS7003;45932;50.658;3.022;2022-12-24T12:49:04;8.33;8.33;5.33
60058;PMS7003;45932;50.658;3.022;2022-12-24T12:51:44;13.33;9.33;6.00
60058;PMS7003;45932;50.658;3.022;2022-12-24T12:56:57;13.00;7.67;6.00
60058;PMS7003;45932;50.658;3.022;2022-12-24T13:02:11;12.00;7.67;4.67
60058;PMS7003;45932;50.658;3.022;2022-12-24T13:05:12;9.33;8.00;4.67
60058;PMS7003;45932;50.658;3.022;2022-12-24T13:13:42;11.33;6.67;3.00
60058;PMS7003;45932;50.658;3.022;2022-12-24T13:21:43;10.33;9.33;4.67
60058;PMS7003;45932;50.658;3.022;2022-12-24T13:24:22;6.67;4.67;3.67
60058;PMS7003;45932;50.658;3.022;2022-12-24T13:27:00;9.67;6.00;3.00
60058;PMS7003;45932;50.658;3.022;2022-12-24T13:30:00;6.33;4.67;3.33
60058;PMS7003;45932;50.658;3.022;2022-12-24T13:34:53;8.33;6.00;4.67
60058;PMS7003;45932;50.658;3.022;2022-12-24T13:37:21;13.67;11.00;6.00
60058;PMS7003;45932;50.658;3.022;2022-12-24T13:45:51;11.33;8.33;4.33
60058;PMS7003;45932;50.658;3.022;2022-12-24T13:48:29;11.67;7.67;4.67
60058;PMS7003;45932;50.658;3.022;2022-12-24T13:50:58;13.00;6.00;4.33
60058;PMS7003;45932;50.658;3.022;2022-12-24T13:53:30;8.33;6.00;3.33
60058;PMS7003;45932;50.658;3.022;2022-12-24T13:56:08;15.33;10.00;5.33
60058;PMS7003;45932;50.658;3.022;2022-12-24T13:58:49;12.33;9.00;4.67
60058;PMS7003;45932;50.658;3.022;2022-12-24T14:01:20;9.00;7.00;4.33
60058;PMS7003;45932;50.658;3.022;2022-12-24T14:03:56;10.33;8.00;5.67
60058;PMS7003;45932;50.658;3.022;2022-12-24T14:06:26;11.00;7.00;4.67
60058;PMS7003;45932;50.658;3.022;2022-12-24T14:09:04;9.67;7.33;5.00
60058;PMS7003;45932;50.658;3.022;2022-12-24T14:16:51;8.67;7.67;3.67
60058;PMS7003;45932;50.658;3.022;2022-12-24T14:19:20;7.67;5.33;2.00
60058;PMS7003;45932;50.658;3.022;2022-12-24T14:24:27;6.00;6.00;3.00
60058;PMS7003;45932;50.658;3.022;2022-12-24T14:26:59;6.33;4.00;3.00
60058;PMS7003;45932;50.658;3.022;2022-12-24T14:32:39;13.33;8.67;4.67
60058;PMS7003;45932;50.658;3.022;2022-12-24T14:35:18;9.33;7.00;5.00
60058;PMS7003;45932;50.658;3.022;2022-12-24T14:37:59;15.00;7.00;5.67
60058;PMS7003;45932;50.658;3.022;2022-12-24T14:40:29;12.33;8.00;5.00
60058;PMS7003;45932;50.658;3.022;2022-12-24T14:48:18;15.33;9.33;5.67
60058;PMS7003;45932;50.658;3.022;2022-12-24T14:53:46;6.00;6.00;3.33
60058;PMS7003;45932;50.658;3.022;2022-12-24T14:56:18;11.33;8.67;6.00
60058;PMS7003;45932;50.658;3.022;2022-12-24T14:58:45;10.33;6.00;5.67
60058;PMS7003;45932;50.658;3.022;2022-12-24T15:01:24;10.33;6.67;5.33
60058;PMS7003;45932;50.658;3.022;2022-12-24T15:06:51;10.33;8.67;6.00
60058;PMS7003;45932;50.658;3.022;2022-12-24T15:09:19;14.67;10.00;6.33
60058;PMS7003;45932;50.658;3.022;2022-12-24T15:11:48;13.67;12.33;6.67
60058;PMS7003;45932;50.658;3.022;2022-12-24T15:14:16;11.33;9.67;7.33
60058;PMS7003;45932;50.658;3.022;2022-12-24T15:16:51;13.67;10.33;6.00
60058;PMS7003;45932;50.658;3.022;2022-12-24T15:19:21;11.67;9.67;7.00
60058;PMS7003;45932;50.658;3.022;2022-12-24T15:22:21;12.00;9.67;6.00
60058;PMS7003;45932;50.658;3.022;2022-12-24T15:24:49;17.33;11.00;6.00
60058;PMS7003;45932;50.658;3.022;2022-12-24T15:27:16;9.67;9.33;6.00
60058;PMS7003;45932;50.658;3.022;2022-12-24T15:29:47;12.00;11.67;8.00
60058;PMS7003;45932;50.658;3.022;2022-12-24T15:32:15;16.00;14.33;7.33
60058;PMS7003;45932;50.658;3.022;2022-12-24T15:34:43;12.33;11.67;6.67
60058;PMS7003;45932;50.658;3.022;2022-12-24T15:37:15;12.67;10.33;7.00
60058;PMS7003;45932;50.658;3.022;2022-12-24T15:39:42;16.33;16.33;11.00
60058;PMS7003;45932;50.658;3.022;2022-12-24T15:42:08;12.33;11.67;9.00
60058;PMS7003;45932;50.658;3.022;2022-12-24T15:44:44;17.67;16.33;10.33
60058;PMS7003;45932;50.658;3.022;2022-12-24T15:47:35;15.00;13.00;10.00
60058;PMS7003;45932;50.658;3.022;2022-12-24T15:50:13;14.00;12.67;8.67
60058;PMS7003;45932;50.658;3.022;2022-12-24T15:52:42;18.00;12.67;8.00
60058;PMS7003;45932;50.658;3.022;2022-12-24T15:58:14;10.67;7.67;6.33
60058;PMS7003;45932;50.658;3.022;2022-12-24T16:00:41;18.00;12.67;8.33
60058;PMS7003;45932;50.658;3.022;2022-12-24T16:03:11;11.33;10.00;4.33
60058;PMS7003;45932;50.658;3.022;2022-12-24T16:05:42;14.67;11.33;7.00
60058;PMS7003;45932;50.658;3.022;2022-12-24T16:10:37;15.00;12.00;7.67
60058;PMS7003;45932;50.658;3.022;2022-12-24T16:15:46;14.33;10.67;7.00
60058;PMS7003;45932;50.658;3.022;2022-12-24T16:18:22;12.67;10.00;7.00
60058;PMS7003;45932;50.658;3.022;2022-12-24T16:20:49;18.00;11.00;7.67
60058;PMS7003;45932;50.658;3.022;2022-12-24T16:23:20;15.00;12.33;7.67
60058;PMS7003;45932;50.658;3.022;2022-12-24T16:25:48;11.33;10.33;6.67
60058;PMS7003;45932;50.658;3.022;2022-12-24T16:28:14;15.00;9.67;7.00
60058;PMS7003;45932;50.658;3.022;2022-12-24T16:30:40;10.67;10.00;7.00
60058;PMS7003;45932;50.658;3.022;2022-12-24T16:33:11;11.67;10.00;7.00
60058;PMS7003;45932;50.658;3.022;2022-12-24T16:35:38;15.33;11.33;7.00
60058;PMS7003;45932;50.658;3.022;2022-12-24T16:38:04;14.67;11.33;7.33
60058;PMS7003;45932;50.658;3.022;2022-12-24T16:40:29;12.33;10.67;7.33